createdAt,value
2023-06-02T00:01:16.129Z,22.75
2023-06-02T00:03:44.207Z,22.57
2023-06-02T00:06:12.358Z,22.63
2023-06-02T00:08:41.449Z,22.50
2023-06-02T00:11:09.876Z,22.51
2023-06-02T00:13:36.886Z,22.43
2023-06-02T00:16:04.529Z,22.31
2023-06-02T00:18:34.210Z,22.32
2023-06-02T00:21:02.697Z,22.24
2023-06-02T00:23:30.376Z,22.15
2023-06-02T00:25:58.162Z,22.12
2023-06-02T00:28:25.117Z,22.15
2023-06-02T00:30:52.667Z,22.03
2023-06-02T00:33:19.919Z,21.84
2023-06-02T00:35:46.859Z,22.06
2023-06-02T00:38:14.023Z,22.02
2023-06-02T00:40:40.676Z,21.96
2023-06-02T00:43:07.480Z,21.92
2023-06-02T00:45:34.107Z,21.91
2023-06-02T00:48:02.451Z,21.89
2023-06-02T00:50:29.880Z,21.87
2023-06-02T00:52:58.779Z,21.71
2023-06-02T00:55:28.929Z,21.75
2023-06-02T00:57:57.996Z,21.70
2023-06-02T01:00:25.141Z,21.57
2023-06-02T01:02:51.868Z,21.60
2023-06-02T01:05:20.582Z,21.55
2023-06-02T01:07:49.136Z,21.48
2023-06-02T01:10:17.016Z,21.41
2023-06-02T01:12:45.021Z,21.33
2023-06-02T01:15:12.229Z,21.28
2023-06-02T01:17:39.269Z,21.21
2023-06-02T01:20:07.145Z,21.15
2023-06-02T01:22:50.877Z,21.09
2023-06-02T01:25:22.181Z,20.88
2023-06-02T01:27:49.139Z,21.00
2023-06-02T01:30:17.642Z,20.90
2023-06-02T01:32:56.029Z,20.93
2023-06-02T01:35:24.506Z,20.91
2023-06-02T01:37:58.092Z,20.88
2023-06-02T01:40:25.793Z,20.80
2023-06-02T01:42:53.574Z,20.68
2023-06-02T01:45:22.715Z,20.74
2023-06-02T01:47:49.468Z,20.67
2023-06-02T01:50:16.110Z,20.50
2023-06-02T01:52:42.823Z,20.60
2023-06-02T01:55:09.931Z,20.17
2023-06-02T01:57:36.811Z,20.60
2023-06-02T02:00:06.230Z,20.58
2023-06-02T02:02:40.137Z,20.56
2023-06-02T02:05:06.872Z,20.54
2023-06-02T02:07:33.517Z,20.47
2023-06-02T02:10:00.152Z,20.39
2023-06-02T02:12:26.689Z,20.38
2023-06-02T02:14:57.636Z,20.38
2023-06-02T02:17:26.575Z,20.44
2023-06-02T02:19:56.655Z,20.43
2023-06-02T02:22:24.763Z,20.41
2023-06-02T02:24:51.677Z,20.45
2023-06-02T02:27:18.312Z,20.44
2023-06-02T02:29:45.665Z,20.40
2023-06-02T02:32:13.064Z,20.34
2023-06-02T02:34:40.189Z,20.30
2023-06-02T02:37:11.853Z,20.30
2023-06-02T02:39:38.654Z,20.27
2023-06-02T02:42:06.239Z,20.24
2023-06-02T02:44:33.077Z,20.29
2023-06-02T02:46:59.936Z,20.20
2023-06-02T02:49:27.136Z,20.21
2023-06-02T02:51:53.796Z,20.28
2023-06-02T02:54:20.656Z,20.12
2023-06-02T02:56:47.416Z,20.28
2023-06-02T02:59:14.247Z,20.28
2023-06-02T03:01:47.609Z,20.27
2023-06-02T03:04:19.545Z,20.21
2023-06-02T03:06:48.696Z,20.20
2023-06-02T03:09:20.043Z,20.17
2023-06-02T03:11:47.198Z,20.10
2023-06-02T03:14:14.670Z,20.13
2023-06-02T03:16:45.933Z,20.16
2023-06-02T03:19:16.954Z,20.10
2023-06-02T03:21:45.763Z,20.09
2023-06-02T03:24:16.947Z,20.03
2023-06-02T03:26:46.303Z,19.96
2023-06-02T03:29:15.352Z,19.89
2023-06-02T03:31:44.695Z,19.91
2023-06-02T03:34:14.417Z,19.90
2023-06-02T03:36:41.207Z,19.78
2023-06-02T03:39:10.740Z,19.88
2023-06-02T03:41:38.340Z,19.76
2023-06-02T03:44:06.944Z,19.74
2023-06-02T03:46:35.635Z,19.77
2023-06-02T03:49:03.935Z,19.65
2023-06-02T03:51:31.143Z,19.69
2023-06-02T03:53:59.097Z,19.68
2023-06-02T03:56:26.797Z,19.62
2023-06-02T03:58:54.182Z,19.62
2023-06-02T04:01:25.062Z,19.51
2023-06-02T04:03:54.450Z,19.66
2023-06-02T04:06:22.373Z,19.64
2023-06-02T04:08:49.242Z,19.63
2023-06-02T04:11:16.312Z,19.62
2023-06-02T04:13:43.497Z,19.69
2023-06-02T04:16:10.864Z,19.66
2023-06-02T04:18:40.143Z,19.67
2023-06-02T04:21:08.742Z,19.68
2023-06-02T04:23:37.243Z,19.70
2023-06-02T04:26:04.302Z,19.66
2023-06-02T04:28:31.597Z,19.66
2023-06-02T04:31:00.841Z,19.69
2023-06-02T04:33:31.204Z,19.56
2023-06-02T04:35:58.071Z,19.69
2023-06-02T04:38:25.255Z,19.70
2023-06-02T04:40:52.802Z,19.73
2023-06-02T04:43:21.159Z,19.55
2023-06-02T04:45:48.529Z,19.65
2023-06-02T04:48:18.705Z,19.57
2023-06-02T04:50:46.024Z,19.58
2023-06-02T04:53:14.463Z,19.48
2023-06-02T04:55:41.322Z,19.43
2023-06-02T04:58:08.167Z,19.36
2023-06-02T05:00:38.140Z,19.32
2023-06-02T05:03:06.325Z,19.29
2023-06-02T05:05:33.452Z,19.27
2023-06-02T05:08:00.364Z,19.16
2023-06-02T05:10:27.158Z,19.14
2023-06-02T05:12:55.387Z,19.09
2023-06-02T05:15:22.717Z,19.20
2023-06-02T05:17:50.095Z,19.28
2023-06-02T05:20:20.437Z,19.29
2023-06-02T05:22:47.147Z,19.32
2023-06-02T05:25:13.860Z,19.34
2023-06-02T05:27:41.550Z,19.30
2023-06-02T05:30:10.091Z,19.23
2023-06-02T05:32:38.049Z,19.16
2023-06-02T05:35:06.876Z,19.16
2023-06-02T05:37:33.714Z,19.33
2023-06-02T05:40:00.497Z,19.37
2023-06-02T05:42:28.022Z,19.40
2023-06-02T05:44:55.662Z,19.42
2023-06-02T05:47:22.543Z,19.34
2023-06-02T05:49:50.599Z,19.33
2023-06-02T05:52:17.592Z,19.37
2023-06-02T05:54:44.412Z,19.48
2023-06-02T05:57:12.627Z,19.49
2023-06-02T05:59:40.773Z,19.61
2023-06-02T06:02:07.698Z,19.73
2023-06-02T06:04:34.387Z,19.72
2023-06-02T06:07:01.393Z,19.72
2023-06-02T06:09:28.158Z,19.77
2023-06-02T06:11:55.271Z,19.94
2023-06-02T06:14:22.484Z,20.08
2023-06-02T06:16:49.319Z,20.16
2023-06-02T06:19:16.037Z,20.24
2023-06-02T06:21:42.857Z,20.36
2023-06-02T06:24:09.743Z,20.47
2023-06-02T06:26:37.404Z,20.63
2023-06-02T06:29:04.947Z,20.74
2023-06-02T06:31:35.991Z,20.79
2023-06-02T06:34:03.881Z,20.90
2023-06-02T06:36:30.727Z,20.98
2023-06-02T06:38:58.111Z,20.98
2023-06-02T06:41:26.215Z,20.95
2023-06-02T06:43:53.156Z,21.20
2023-06-02T06:46:20.811Z,21.33
2023-06-02T06:48:51.833Z,21.40
2023-06-02T06:51:18.790Z,21.50
2023-06-02T06:53:45.643Z,21.50
2023-06-02T06:56:12.337Z,21.52
2023-06-02T06:58:39.230Z,21.47
2023-06-02T07:01:06.065Z,21.61
2023-06-02T07:03:32.852Z,21.53
2023-06-02T07:06:00.055Z,21.74
2023-06-02T07:08:26.823Z,21.78
2023-06-02T07:10:53.528Z,21.88
2023-06-02T07:13:20.586Z,21.99
2023-06-02T07:15:47.613Z,21.99
2023-06-02T07:18:14.270Z,22.01
2023-06-02T07:20:41.004Z,22.16
2023-06-02T07:23:07.732Z,21.87
2023-06-02T07:25:35.558Z,22.32
2023-06-02T07:28:03.807Z,21.99
2023-06-02T07:30:30.487Z,22.51
2023-06-02T07:32:57.130Z,22.61
2023-06-02T07:35:23.773Z,22.67
2023-06-02T07:37:55.008Z,22.70
2023-06-02T07:40:21.987Z,22.48
2023-06-02T07:42:48.764Z,22.58
2023-06-02T07:45:15.387Z,22.50
2023-06-02T07:47:42.352Z,22.77
2023-06-02T07:50:09.697Z,22.86
2023-06-02T07:52:36.475Z,22.90
2023-06-02T07:55:04.237Z,22.91
2023-06-02T07:57:30.980Z,22.87
2023-06-02T07:59:57.585Z,23.04
2023-06-02T08:02:24.392Z,23.15
2023-06-02T08:04:51.345Z,23.24
2023-06-02T08:07:18.807Z,23.35
2023-06-02T08:09:45.430Z,23.36
2023-06-02T08:12:12.176Z,23.51
2023-06-02T08:14:41.264Z,23.42
2023-06-02T08:17:08.474Z,23.66
2023-06-02T08:19:37.769Z,23.84
2023-06-02T08:22:04.964Z,24.08
2023-06-02T08:24:33.188Z,24.06
2023-06-02T08:27:01.821Z,24.19
2023-06-02T08:29:30.939Z,24.37
2023-06-02T08:31:57.856Z,24.41
2023-06-02T08:34:25.466Z,24.56
2023-06-02T08:37:01.751Z,24.74
2023-06-02T08:39:30.442Z,24.90
2023-06-02T08:41:58.032Z,24.73
2023-06-02T08:44:25.134Z,24.85
2023-06-02T08:46:52.267Z,24.72
2023-06-02T08:49:19.749Z,24.84
2023-06-02T08:51:48.964Z,25.06
2023-06-02T08:54:16.192Z,25.22
2023-06-02T08:56:45.171Z,25.37
2023-06-02T08:59:11.930Z,25.45
2023-06-02T09:01:42.926Z,25.50
2023-06-02T09:04:09.719Z,25.57
2023-06-02T09:06:37.533Z,25.67
2023-06-02T09:09:05.177Z,25.73
2023-06-02T09:11:33.581Z,25.69
2023-06-02T09:14:00.488Z,25.81
2023-06-02T09:16:39.244Z,25.96
2023-06-02T09:19:06.093Z,26.05
2023-06-02T09:21:36.907Z,26.24
2023-06-02T09:26:33.454Z,26.31
2023-06-02T09:29:14.783Z,26.45
2023-06-02T09:31:56.184Z,26.56
2023-06-02T09:34:25.109Z,26.56
2023-06-02T09:36:53.986Z,26.69
2023-06-02T09:39:34.449Z,26.61
2023-06-02T09:42:01.860Z,26.54
2023-06-02T09:44:28.779Z,26.56
2023-06-02T09:46:56.359Z,26.56
2023-06-02T09:49:23.340Z,26.79
2023-06-02T09:51:51.566Z,26.88
2023-06-02T09:54:18.505Z,26.76
2023-06-02T09:56:46.224Z,26.90
2023-06-02T09:59:12.841Z,26.92
2023-06-02T10:01:39.549Z,26.96
2023-06-02T10:04:07.352Z,27.08
2023-06-02T10:06:41.221Z,26.88
2023-06-02T10:09:25.746Z,27.07
2023-06-02T10:12:07.742Z,27.22
2023-06-02T10:14:52.936Z,26.85
2023-06-02T10:17:44.934Z,26.07
2023-06-02T10:20:25.540Z,25.35
2023-06-02T10:23:20.050Z,25.07
2023-06-02T10:26:08.585Z,24.88
2023-06-02T10:28:35.970Z,25.21
2023-06-02T10:31:11.559Z,25.60
2023-06-02T10:33:49.397Z,25.73
2023-06-02T10:36:19.302Z,25.93
2023-06-02T10:38:47.158Z,25.93
2023-06-02T10:41:15.957Z,26.21
2023-06-02T10:44:22.402Z,26.35
2023-06-02T10:46:49.454Z,26.48
2023-06-02T10:49:56.170Z,26.54
2023-06-02T10:52:23.419Z,26.69
2023-06-02T10:55:17.502Z,26.88
2023-06-02T10:58:00.195Z,27.12
2023-06-02T11:00:33.423Z,27.17
2023-06-02T11:03:00.717Z,26.92
2023-06-02T11:05:31.921Z,27.13
2023-06-02T11:08:12.052Z,27.38
2023-06-02T11:10:46.660Z,27.52
2023-06-02T11:13:29.379Z,27.60
2023-06-02T11:15:56.008Z,27.85
2023-06-02T11:18:34.904Z,27.96
2023-06-02T11:21:04.317Z,27.60
2023-06-02T11:23:31.913Z,27.84
2023-06-02T11:26:01.890Z,28.19
2023-06-02T11:28:29.416Z,28.21
2023-06-02T11:31:07.295Z,28.12
2023-06-02T11:33:35.562Z,28.43
2023-06-02T11:36:02.497Z,28.55
2023-06-02T11:38:33.323Z,28.66
2023-06-02T11:41:10.017Z,28.74
2023-06-02T11:43:37.292Z,28.73
2023-06-02T11:46:14.443Z,28.94
2023-06-02T11:48:41.859Z,29.10
2023-06-02T11:51:09.883Z,29.09
2023-06-02T11:53:45.640Z,29.34
2023-06-02T11:56:13.433Z,29.29
2023-06-02T11:58:44.056Z,29.21
2023-06-02T12:01:15.706Z,29.24
2023-06-02T12:04:05.414Z,29.33
2023-06-02T12:06:34.040Z,29.34
2023-06-02T12:09:11.930Z,29.27
2023-06-02T12:11:38.812Z,29.46
2023-06-02T12:14:07.979Z,29.48
2023-06-02T12:16:41.642Z,29.47
2023-06-02T12:19:22.085Z,29.66
2023-06-02T12:21:51.687Z,29.68
2023-06-02T12:24:35.315Z,29.73
2023-06-02T12:27:03.078Z,29.90
2023-06-02T12:29:30.529Z,30.16
2023-06-02T12:32:02.338Z,30.19
2023-06-02T12:34:29.748Z,30.20
2023-06-02T12:36:56.639Z,30.23
2023-06-02T12:39:23.370Z,30.40
2023-06-02T12:41:50.017Z,30.62
2023-06-02T12:44:16.776Z,30.68
2023-06-02T12:46:43.488Z,30.91
2023-06-02T12:49:10.307Z,31.09
2023-06-02T12:51:37.277Z,31.17
2023-06-02T12:54:03.995Z,31.24
2023-06-02T12:56:32.842Z,31.30
2023-06-02T12:59:00.577Z,31.54
2023-06-02T13:01:28.112Z,31.77
2023-06-02T13:03:57.035Z,31.89
2023-06-02T13:06:25.239Z,31.95
2023-06-02T13:08:52.934Z,32.01
2023-06-02T13:11:19.716Z,32.03
2023-06-02T13:13:46.770Z,32.07
2023-06-02T13:16:13.558Z,32.16
2023-06-02T13:18:43.079Z,32.10
2023-06-02T13:21:10.237Z,32.26
2023-06-02T13:23:37.173Z,32.25
2023-06-02T13:26:04.423Z,31.94
2023-06-02T13:28:31.665Z,32.26
2023-06-02T13:30:59.626Z,32.30
2023-06-02T13:33:26.907Z,32.24
2023-06-02T13:35:53.701Z,32.06
2023-06-02T13:38:20.458Z,32.25
2023-06-02T13:40:47.154Z,32.16
2023-06-02T13:43:14.510Z,32.22
2023-06-02T13:45:41.257Z,32.01
2023-06-02T13:48:09.551Z,32.12
2023-06-02T13:50:36.459Z,32.20
2023-06-02T13:53:03.598Z,32.16
2023-06-02T13:55:31.333Z,31.95
2023-06-02T13:57:58.398Z,31.98
2023-06-02T14:00:25.142Z,31.92
2023-06-02T14:02:52.344Z,31.86
2023-06-02T14:05:19.380Z,31.77
2023-06-02T14:07:46.059Z,31.70
2023-06-02T14:10:12.746Z,31.84
2023-06-02T14:12:39.357Z,31.78
2023-06-02T14:15:06.993Z,31.69
2023-06-02T14:17:33.711Z,31.51
2023-06-02T14:20:00.875Z,31.21
2023-06-02T14:22:27.691Z,31.09
2023-06-02T14:24:54.607Z,30.70
2023-06-02T14:27:21.782Z,30.93
2023-06-02T14:29:48.484Z,30.74
2023-06-02T14:32:15.355Z,30.87
2023-06-02T14:34:41.981Z,30.77
2023-06-02T14:37:09.434Z,30.60
2023-06-02T14:39:39.256Z,30.61
2023-06-02T14:42:06.405Z,30.33
2023-06-02T14:44:36.043Z,30.32
2023-06-02T14:47:02.736Z,30.18
2023-06-02T14:49:29.459Z,30.10
2023-06-02T14:51:56.057Z,30.05
2023-06-02T14:54:23.065Z,29.84
2023-06-02T14:56:49.730Z,29.91
2023-06-02T14:59:18.664Z,30.03
2023-06-02T15:01:46.075Z,30.01
2023-06-02T15:04:12.890Z,29.94
2023-06-02T15:06:41.632Z,29.86
2023-06-02T15:09:08.258Z,29.76
2023-06-02T15:11:34.927Z,29.62
2023-06-02T15:14:01.556Z,29.51
2023-06-02T15:16:28.307Z,29.39
2023-06-02T15:18:56.426Z,29.25
2023-06-02T15:21:24.584Z,29.20
2023-06-02T15:23:51.293Z,29.22
2023-06-02T15:26:18.054Z,29.11
2023-06-02T15:28:44.827Z,28.98
2023-06-02T15:31:11.617Z,28.95
2023-06-02T15:33:38.673Z,28.82
2023-06-02T15:36:06.144Z,28.81
2023-06-02T15:38:33.037Z,28.76
2023-06-02T15:41:00.033Z,28.68
2023-06-02T15:43:26.657Z,28.61
2023-06-02T15:45:53.328Z,28.62
2023-06-02T15:48:19.974Z,28.53
2023-06-02T15:50:46.616Z,28.46
2023-06-02T15:53:13.262Z,28.55
2023-06-02T15:55:41.342Z,28.43
2023-06-02T15:58:07.949Z,28.40
2023-06-02T16:00:34.777Z,28.43
2023-06-02T16:03:02.412Z,28.40
2023-06-02T16:05:29.098Z,28.49
2023-06-02T16:07:55.839Z,28.47
2023-06-02T16:10:22.512Z,28.33
2023-06-02T16:12:49.583Z,28.22
2023-06-02T16:15:16.313Z,28.19
2023-06-02T16:17:43.137Z,28.27
2023-06-02T16:20:10.043Z,28.33
2023-06-02T16:22:37.716Z,28.34
2023-06-02T16:25:05.184Z,28.34
2023-06-02T16:27:32.295Z,28.25
2023-06-02T16:29:58.902Z,28.24
2023-06-02T16:32:25.943Z,28.13
2023-06-02T16:34:52.717Z,28.12
2023-06-02T16:37:19.831Z,28.04
2023-06-02T16:39:47.197Z,28.07
2023-06-02T16:42:15.011Z,28.04
2023-06-02T16:44:41.792Z,27.91
2023-06-02T16:47:08.702Z,27.81
2023-06-02T16:49:35.703Z,27.77
2023-06-02T16:52:03.331Z,27.66
2023-06-02T16:54:30.012Z,27.75
2023-06-02T16:56:56.694Z,27.59
2023-06-02T16:59:23.542Z,27.50
2023-06-02T17:01:50.318Z,27.44
2023-06-02T17:04:17.862Z,27.49
2023-06-02T17:06:44.807Z,27.37
2023-06-02T17:09:11.554Z,27.32
2023-06-02T17:11:39.058Z,27.33
2023-06-02T17:14:05.822Z,27.27
2023-06-02T17:16:32.657Z,27.27
2023-06-02T17:18:59.654Z,27.21
2023-06-02T17:21:29.227Z,27.08
2023-06-02T17:23:55.933Z,26.90
2023-06-02T17:26:22.778Z,26.90
2023-06-02T17:28:49.641Z,26.94
2023-06-02T17:31:17.071Z,26.85
2023-06-02T17:33:43.772Z,26.84
2023-06-02T17:36:10.503Z,26.72
2023-06-02T17:38:37.134Z,26.36
2023-06-02T17:41:04.051Z,26.61
2023-06-02T17:43:30.900Z,26.56
2023-06-02T17:45:59.390Z,26.49
2023-06-02T17:48:26.854Z,26.39
2023-06-02T17:50:53.532Z,26.41
2023-06-02T17:53:20.140Z,26.41
2023-06-02T17:55:47.080Z,26.28
2023-06-02T17:58:13.928Z,26.32
2023-06-02T18:00:40.923Z,26.28
2023-06-02T18:03:07.788Z,26.16
2023-06-02T18:05:34.511Z,26.04
2023-06-02T18:08:02.004Z,25.97
2023-06-02T18:10:28.646Z,25.93
2023-06-02T18:12:59.104Z,25.91
2023-06-02T18:15:26.964Z,25.88
2023-06-02T18:17:54.246Z,25.83
2023-06-02T18:20:21.198Z,25.79
2023-06-02T18:22:47.895Z,25.71
2023-06-02T18:25:15.835Z,25.67
2023-06-02T18:27:42.982Z,25.49
2023-06-02T18:30:10.149Z,25.46
2023-06-02T18:32:36.992Z,25.47
2023-06-02T18:35:03.875Z,25.40
2023-06-02T18:37:30.683Z,25.17
2023-06-02T18:39:57.325Z,25.38
2023-06-02T18:42:23.986Z,25.32
2023-06-02T18:44:50.725Z,25.33
2023-06-02T18:47:17.615Z,25.27
2023-06-02T18:49:44.371Z,25.26
2023-06-02T18:52:11.123Z,25.24
2023-06-02T18:54:37.742Z,25.18
2023-06-02T18:57:04.783Z,25.14
2023-06-02T18:59:31.899Z,25.09
2023-06-02T19:01:58.591Z,25.09
2023-06-02T19:04:25.476Z,25.06
2023-06-02T19:06:52.125Z,25.04
2023-06-02T19:09:18.754Z,25.00
2023-06-02T19:11:46.444Z,24.86
2023-06-02T19:14:13.275Z,24.84
2023-06-02T19:16:40.011Z,24.74
2023-06-02T19:19:06.759Z,24.78
2023-06-02T19:21:33.753Z,24.62
2023-06-02T19:24:00.690Z,24.58
2023-06-02T19:26:27.740Z,24.65
2023-06-02T19:28:54.537Z,24.57
2023-06-02T19:31:21.301Z,24.58
2023-06-02T19:33:48.235Z,24.54
2023-06-02T19:36:15.109Z,24.51
2023-06-02T19:38:41.808Z,24.41
2023-06-02T19:41:08.655Z,24.42
2023-06-02T19:43:35.332Z,24.37
2023-06-02T19:46:03.152Z,24.27
2023-06-02T19:48:29.862Z,24.29
2023-06-02T19:50:56.545Z,24.20
2023-06-02T19:53:23.204Z,24.15
2023-06-02T19:55:49.849Z,23.74
2023-06-02T19:58:16.762Z,24.03
2023-06-02T20:00:45.121Z,23.95
2023-06-02T20:03:11.840Z,24.02
2023-06-02T20:05:38.587Z,24.07
2023-06-02T20:08:05.391Z,23.99
2023-06-02T20:10:32.283Z,23.98
2023-06-02T20:12:58.926Z,23.94
2023-06-02T20:15:26.143Z,23.88
2023-06-02T20:17:52.942Z,23.59
2023-06-02T20:20:19.675Z,23.73
2023-06-02T20:22:46.296Z,23.76
2023-06-02T20:25:12.946Z,23.58
2023-06-02T20:27:39.899Z,23.64
2023-06-02T20:30:07.281Z,23.41
2023-06-02T20:32:34.269Z,23.64
2023-06-02T20:35:01.355Z,23.59
2023-06-02T20:37:27.967Z,23.66
2023-06-02T20:39:54.641Z,23.21
2023-06-02T20:42:21.276Z,23.44
2023-06-02T20:44:47.922Z,23.42
2023-06-02T20:47:15.861Z,23.18
2023-06-02T20:49:42.572Z,23.37
2023-06-02T20:52:09.286Z,23.39
2023-06-02T20:54:35.970Z,23.36
2023-06-02T20:57:02.578Z,23.35
2023-06-02T20:59:29.189Z,23.34
2023-06-02T21:01:55.858Z,23.23
2023-06-02T21:04:22.499Z,23.15
2023-06-02T21:06:49.118Z,23.08
2023-06-02T21:09:15.865Z,23.19
2023-06-02T21:11:42.572Z,23.07
2023-06-02T21:14:09.295Z,22.97
2023-06-02T21:16:38.295Z,22.96
2023-06-02T21:19:06.837Z,22.90
2023-06-02T21:21:33.727Z,22.81
2023-06-02T21:24:00.508Z,22.77
2023-06-02T21:26:30.013Z,22.59
2023-06-02T21:28:56.654Z,22.55
2023-06-02T21:31:23.520Z,22.57
2023-06-02T21:33:50.351Z,22.50
2023-06-02T21:36:17.143Z,22.46
2023-06-02T21:38:43.747Z,22.41
2023-06-02T21:41:10.450Z,22.37
2023-06-02T21:43:37.052Z,22.08
2023-06-02T21:46:03.881Z,22.13
2023-06-02T21:48:30.623Z,22.21
2023-06-02T21:50:57.328Z,22.23
2023-06-02T21:53:24.117Z,22.18
2023-06-02T21:55:50.869Z,22.13
2023-06-02T21:58:17.511Z,22.00
2023-06-02T22:00:44.302Z,22.01
2023-06-02T22:03:11.136Z,22.01
2023-06-02T22:05:37.814Z,21.95
2023-06-02T22:08:04.757Z,21.86
2023-06-02T22:10:31.419Z,21.62
2023-06-02T22:12:58.073Z,21.84
2023-06-02T22:15:24.734Z,21.75
2023-06-02T22:17:51.465Z,21.67
2023-06-02T22:20:18.306Z,21.71
2023-06-02T22:22:44.905Z,21.76
2023-06-02T22:25:11.610Z,21.66
2023-06-02T22:27:38.250Z,21.68
2023-06-02T22:30:05.784Z,21.60
2023-06-02T22:32:32.710Z,21.66
2023-06-02T22:34:59.301Z,21.65
2023-06-02T22:37:26.815Z,21.58
2023-06-02T22:39:53.657Z,21.51
2023-06-02T22:42:23.307Z,21.39
2023-06-02T22:44:50.660Z,21.33
2023-06-02T22:47:17.226Z,21.46
2023-06-02T22:49:44.194Z,21.44
2023-06-02T22:52:13.205Z,21.40
2023-06-02T22:54:39.904Z,21.41
2023-06-02T22:57:06.925Z,21.39
2023-06-02T22:59:33.714Z,21.24
2023-06-02T23:02:00.349Z,21.31
2023-06-02T23:04:27.052Z,21.31
2023-06-02T23:06:53.690Z,21.17
2023-06-02T23:09:20.396Z,21.15
2023-06-02T23:11:46.999Z,21.18
2023-06-02T23:14:13.561Z,21.16
2023-06-02T23:16:40.698Z,20.95
2023-06-02T23:19:07.334Z,21.13
2023-06-02T23:21:33.926Z,21.08
2023-06-02T23:24:00.722Z,21.06
2023-06-02T23:26:27.410Z,21.00
2023-06-02T23:28:54.105Z,20.98
2023-06-02T23:31:20.860Z,21.00
2023-06-02T23:33:47.653Z,20.99
2023-06-02T23:36:14.543Z,20.94
2023-06-02T23:38:41.263Z,20.90
2023-06-02T23:41:07.878Z,20.83
2023-06-02T23:43:34.394Z,20.91
2023-06-02T23:46:01.184Z,20.88
2023-06-02T23:48:27.812Z,20.87
2023-06-02T23:50:54.409Z,20.84
2023-06-02T23:53:21.005Z,20.84
2023-06-02T23:55:47.672Z,20.75
2023-06-02T23:58:14.307Z,20.69
